עמוד ראשי
METAR-TAF:

METAR-TAF

שדות תעופה :

Chillán, צ'ילה

קו רוחב: 36-34S, קו אורך: 072-02W, גובה: 124מטר

תצפית מזג אוויר נוכחית

הדו"ח נערך לפני 1 שעות ו 4דקות, בשעה 10:00 UTC
רוח 2קשר מכיוון דרום-מזרח
טמפרטורת -1 צלסיוס
לחות 100%
לחץ 1021 hPa
ראות: 0500מטר
ערפל,

METAR: SCCH 241000Z AUTO 14002KT 0500 R22/0600 FG VV001 M01/M01 Q1021

זמן: 07:04 (11:04 UTC)


TAF: חסר

תצפיות ותחזיות מזג אוויר לגבי יותר מ- 4,000 שדות תעופה ברחבי העולם. דוחות METAR ו- TAF.

התחנות הזמינות מסומנות בנקודות צהובות ואדומות על גבי המפה.

העבר את העכבר לנקודה הצבעונית על מנת לראות את שם התחנה.

לאחר מכן, לחץ כדי לראות את תוכן ואת תחזיות מזג האוויר.

כדי לשנות את המפה: לחץ על הכפתורים הירוקים עם הפלוס השחור כדי להתקרב; על הכפתור הירוק עם המקף כדי להתרחק; או בחיצים הירוקים למפות סמוכות.


METAR-TAF: